Disclaimer

Please do not use the information listed here in-flight or in-navigation, as they are not provided to us by the airports but are provided by volunteers, so they might be outdated.

Search


Regions


Airport information page

Radio informations:
EDMONTON RDO - 126.7 MHz
Common traffic adv. frequency (CTAF) - 123.2 MHz

Airport informations:
Latitude: 55° 41' 14.00" N
Longitude: 121° 37' 36.00" W
Elevation: 2000 feet - 610 meters
Operating hours: N/A
Operating agency: Municipal
Timezone: Second Sunday in March at 0200 to first Sunday in November at 0200 local time (Exception Arizona and that portion of Indiana in the Eastern Time Zone)
Fuel: N/A

Runway information:
05/23 - 4484 x 100 feet< - >1367 x 30 meters

Recent METARs:
CYCQ 181700Z 24012KT 35SM FEW040 BKN100 OVC190 04/M02 A2996 RMK CU1AC5CI2 ACSL S SLP174
CYCQ 181800Z 23007KT 190V260 35SM FEW040 SCT100 OVC190 05/M02 A2997 RMK CU1AC3CI4 SLP176
CYCQ 181800Z 23007KT 190V260 35SM FEW040 SCT100 OVC190 05/M02 A2997 RMK CU1AC3CI4 SLP176

Airport on the map: